Time;durP1;ratioP1;P1;durP2;ratioP2;P2;SDS_P1;SDS_P2;PMS_P1;PMS_P2;Temp;Humidity;BMP_temperature;BMP_pressure;BME280_temperature;BME280_humidity;BME280_pressure;Samples;Min_cycle;Max_cycle;Signal;HPM_P1;HPM_P2
2022/06/20 00:01:37;;;;;;;7.50;3.30;;;25.00;71.90;;;;;;5017724;28;20471;-87
2022/06/20 00:04:03;;;;;;;8.95;2.85;;;24.90;72.10;;;;;;5035196;28;20178;-87
2022/06/20 00:06:29;;;;;;;11.70;3.45;;;24.90;72.60;;;;;;5017891;28;20021;-87
2022/06/20 00:08:55;;;;;;;6.05;2.80;;;24.90;72.90;;;;;;5033444;28;20032;-86
2022/06/20 00:11:27;;;;;;;8.93;3.50;;;24.90;72.80;;;;;;5014450;28;20061;-89
2022/06/20 00:13:55;;;;;;;11.50;3.20;;;24.90;72.80;;;;;;5038854;28;20033;-88
2022/06/20 00:16:22;;;;;;;7.03;3.08;;;24.80;73.00;;;;;;5017507;28;20113;-85
2022/06/20 00:18:48;;;;;;;6.45;3.10;;;24.80;73.50;;;;;;5017496;28;20124;-85
2022/06/20 00:21:18;;;;;;;6.45;3.42;;;24.90;73.20;;;;;;5017707;28;20157;-87
2022/06/20 00:23:43;;;;;;;13.23;3.22;;;24.90;73.50;;;;;;5033933;28;20033;-84
2022/06/20 00:26:09;;;;;;;11.05;3.45;;;24.80;73.40;;;;;;5035494;28;20028;-85
2022/06/20 00:28:35;;;;;;;10.07;3.20;;;24.80;73.50;;;;;;5054701;28;20094;-85
2022/06/20 00:31:02;;;;;;;12.85;3.35;;;24.80;74.20;;;;;;5036572;28;20433;-85
2022/06/20 00:33:28;;;;;;;10.05;3.90;;;24.70;74.40;;;;;;5037252;28;20523;-85
2022/06/20 00:35:53;;;;;;;12.10;3.75;;;24.70;74.40;;;;;;5037385;28;20024;-90
2022/06/20 00:38:21;;;;;;;10.95;3.33;;;24.70;74.90;;;;;;5037567;28;20363;-89
2022/06/20 00:40:50;;;;;;;9.43;3.15;;;24.70;74.80;;;;;;5041638;28;20537;-90
2022/06/20 00:43:33;;;;;;;5.45;2.90;;;24.50;74.90;;;;;;5038895;28;20036;-90
2022/06/20 00:46:03;;;;;;;7.53;3.10;;;24.50;75.60;;;;;;5054436;28;20036;-87
2022/06/20 00:48:38;;;;;;;10.73;3.57;;;24.50;75.80;;;;;;5054556;28;20101;-86
2022/06/20 00:51:18;;;;;;;9.90;3.35;;;24.50;76.00;;;;;;5053863;28;20040;-87
2022/06/20 00:53:56;;;;;;;13.13;4.15;;;24.50;76.30;;;;;;5030145;28;20033;-88
2022/06/20 00:56:29;;;;;;;8.38;3.35;;;24.50;76.30;;;;;;5019882;28;20101;-89
2022/06/20 00:59:11;;;;;;;9.13;3.58;;;24.50;76.10;;;;;;5024812;28;20029;-88
2022/06/20 01:01:39;;;;;;;10.60;3.50;;;24.40;76.50;;;;;;5043245;28;20093;-88
2022/06/20 01:04:21;;;;;;;9.75;3.85;;;24.40;76.50;;;;;;5040208;28;20025;-88
2022/06/20 01:06:49;;;;;;;;;;;24.30;77.00;;;;;;5040368;28;20026;-87
2022/06/20 01:09:18;;;;;;;11.25;3.63;;;24.30;77.30;;;;;;5033406;28;20388;-88
2022/06/20 01:11:47;;;;;;;8.07;3.10;;;24.30;76.90;;;;;;5023674;28;20524;-88
2022/06/20 01:14:33;;;;;;;8.02;3.17;;;24.40;77.00;;;;;;5027141;28;20044;-86
2022/06/20 01:17:01;;;;;;;9.07;3.38;;;24.30;77.50;;;;;;5026476;28;20053;-88
2022/06/20 01:19:36;;;;;;;12.07;3.60;;;24.20;77.70;;;;;;5023015;28;20489;-88
2022/06/20 01:22:19;;;;;;;10.70;3.67;;;24.30;77.70;;;;;;5024547;28;20101;-88
2022/06/20 01:24:56;;;;;;;9.82;3.50;;;24.20;77.90;;;;;;5028599;28;20071;-91
2022/06/20 01:27:38;;;;;;;12.25;3.67;;;24.20;78.10;;;;;;5027683;28;20446;-94
2022/06/20 01:30:05;;;;;;;12.05;3.70;;;24.30;78.20;;;;;;5041193;28;20039;-92
2022/06/20 01:32:31;;;;;;;8.07;3.13;;;24.30;78.20;;;;;;5046155;28;20047;-93
2022/06/20 01:35:00;;;;;;;12.73;3.30;;;24.30;78.10;;;;;;5027523;28;20116;-93
2022/06/20 01:37:28;;;;;;;7.85;3.47;;;24.30;78.30;;;;;;5046530;28;20048;-92
2022/06/20 01:39:59;;;;;;;10.85;3.58;;;24.30;78.70;;;;;;5029916;28;20036;-92
2022/06/20 01:42:28;;;;;;;7.00;3.42;;;24.30;79.60;;;;;;5030491;28;20028;-93
2022/06/20 01:45:05;;;;;;;12.13;3.47;;;24.30;79.20;;;;;;5053457;28;20040;-92
2022/06/20 01:47:32;;;;;;;9.00;3.17;;;24.30;79.60;;;;;;5023811;28;20021;-94
2022/06/20 01:50:06;;;;;;;11.63;3.25;;;24.30;80.10;;;;;;5024724;28;20082;-86
2022/06/20 01:52:38;;;;;;;8.43;3.00;;;24.40;80.60;;;;;;5013471;28;20104;-85
2022/06/20 01:55:12;;;;;;;9.52;3.38;;;24.30;80.30;;;;;;5025370;28;20033;-87
2022/06/20 01:57:42;;;;;;;9.45;3.40;;;24.30;81.00;;;;;;5023897;28;20031;-86
2022/06/20 02:00:16;;;;;;;8.15;3.35;;;24.30;81.30;;;;;;5015626;28;20498;-87
2022/06/20 02:02:46;;;;;;;10.95;3.38;;;24.20;81.50;;;;;;5030851;28;20025;-88
2022/06/20 02:05:17;;;;;;;10.52;3.17;;;24.20;81.60;;;;;;5015854;28;20029;-89
2022/06/20 02:07:43;;;;;;;7.57;3.23;;;24.10;82.30;;;;;;5013739;28;20026;-85
2022/06/20 02:10:13;;;;;;;7.95;3.28;;;24.10;82.30;;;;;;5015440;28;20080;-90
2022/06/20 02:12:39;;;;;;;9.55;3.10;;;24.00;82.30;;;;;;5016332;28;20068;-89
2022/06/20 02:15:06;;;;;;;8.45;3.35;;;24.10;81.70;;;;;;5014890;28;20034;-90
2022/06/20 02:17:39;;;;;;;10.63;2.97;;;24.10;81.00;;;;;;5025190;28;20026;-91
2022/06/20 02:20:12;;;;;;;11.95;3.08;;;24.20;80.50;;;;;;5000169;28;20055;-88
2022/06/20 02:22:39;;;;;;;9.35;2.78;;;24.20;79.90;;;;;;5004127;28;20030;-89
2022/06/20 02:25:17;;;;;;;11.02;2.90;;;24.20;79.40;;;;;;5025333;28;20054;-88
2022/06/20 02:27:48;;;;;;;6.97;3.08;;;24.20;79.30;;;;;;5008211;28;20026;-87
2022/06/20 02:30:14;;;;;;;7.28;2.67;;;24.00;79.50;;;;;;5009802;28;20017;-89
2022/06/20 02:32:46;;;;;;;12.43;2.60;;;24.00;79.10;;;;;;5027140;28;20483;-88
2022/06/20 02:35:16;;;;;;;7.30;2.72;;;24.00;79.20;;;;;;5010404;28;20021;-89
2022/06/20 02:37:42;;;;;;;10.90;2.70;;;24.00;79.30;;;;;;5008587;28;20026;-88
2022/06/20 02:40:11;;;;;;;12.27;3.20;;;23.90;79.30;;;;;;5011386;28;20065;-87
2022/06/20 02:42:56;;;;;;;5.28;2.35;;;23.80;79.10;;;;;;5028697;28;20033;-89
2022/06/20 02:45:23;;;;;;;9.40;2.30;;;23.80;79.20;;;;;;5022559;28;20045;-89
2022/06/20 02:47:57;;;;;;;9.30;2.72;;;23.70;79.00;;;;;;5007847;28;20026;-88
2022/06/20 02:50:28;;;;;;;12.63;2.50;;;23.70;78.90;;;;;;5025563;28;20022;-89
2022/06/20 02:53:02;;;;;;;6.55;2.72;;;23.70;79.00;;;;;;5009337;28;20498;-88
2022/06/20 02:55:30;;;;;;;7.15;2.38;;;23.70;79.20;;;;;;5005822;28;20025;-89
2022/06/20 02:57:59;;;;;;;5.57;2.20;;;23.70;79.20;;;;;;5007935;28;20022;-89
2022/06/20 03:00:43;;;;;;;8.40;2.42;;;23.60;78.60;;;;;;5010507;28;20057;-88
2022/06/20 03:03:26;;;;;;;7.28;2.10;;;23.60;78.90;;;;;;5006803;28;20026;-89
2022/06/20 03:05:52;;;;;;;6.25;2.47;;;23.50;78.70;;;;;;5025213;28;20022;-88
2022/06/20 03:08:18;;;;;;;10.80;2.83;;;23.50;78.60;;;;;;5009115;28;20025;-89
2022/06/20 03:10:50;;;;;;;6.72;2.63;;;23.40;78.70;;;;;;5007198;28;20467;-87
2022/06/20 03:13:17;;;;;;;7.40;2.20;;;23.40;79.40;;;;;;5008650;28;20022;-90
2022/06/20 03:15:43;;;;;;;10.45;2.78;;;23.40;79.10;;;;;;5009856;28;20494;-86
2022/06/20 03:18:18;;;;;;;9.63;2.70;;;23.30;78.80;;;;;;5025020;28;20486;-89
2022/06/20 03:20:45;;;;;;;11.10;2.50;;;23.40;78.60;;;;;;5007424;28;20057;-87
2022/06/20 03:23:18;;;;;;;6.82;2.10;;;23.30;78.50;;;;;;5007748;28;20026;-91
2022/06/20 03:25:44;;;;;;;11.43;2.55;;;23.30;78.60;;;;;;5009310;28;20026;-88
2022/06/20 03:28:16;;;;;;;4.95;2.00;;;23.10;78.30;;;;;;5007599;28;20037;-91
2022/06/20 03:30:42;;;;;;;6.35;2.03;;;23.10;78.30;;;;;;5008122;28;20109;-90
2022/06/20 03:33:14;;;;;;;7.28;2.15;;;23.10;78.30;;;;;;5012387;28;20116;-90
2022/06/20 03:35:48;;;;;;;5.07;1.90;;;23.00;77.90;;;;;;5018237;28;20026;-91
2022/06/20 03:38:15;;;;;;;7.38;1.95;;;23.00;77.90;;;;;;5019090;28;20075;-90
2022/06/20 03:40:40;;;;;;;7.65;1.95;;;23.00;78.00;;;;;;5018619;28;20033;-90
2022/06/20 03:43:09;;;;;;;6.10;1.95;;;23.00;78.00;;;;;;5018329;28;20029;-90
2022/06/20 03:45:40;;;;;;;9.60;2.03;;;23.00;78.10;;;;;;5018994;28;20486;-91
2022/06/20 03:48:17;;;;;;;5.28;1.83;;;23.00;78.30;;;;;;5036003;28;20051;-91
2022/06/20 03:50:53;;;;;;;8.32;1.90;;;23.00;78.60;;;;;;5018168;28;20474;-85
2022/06/20 03:53:39;;;;;;;11.95;2.65;;;23.00;78.50;;;;;;5024020;28;20154;-90
2022/06/20 03:56:11;;;;;;;9.65;1.88;;;22.90;78.30;;;;;;4979319;28;20060;-90
2022/06/20 03:58:56;;;;;;;8.55;2.25;;;23.00;78.20;;;;;;4979230;28;20526;-90
2022/06/20 04:01:45;;;;;;;7.95;1.83;;;22.90;78.00;;;;;;4996964;28;20109;-89
2022/06/20 04:04:23;;;;;;;5.75;2.00;;;22.90;77.90;;;;;;4996814;28;20118;-91
2022/06/20 04:07:01;;;;;;;6.50;1.75;;;22.90;78.40;;;;;;4980231;28;20057;-91
2022/06/20 04:12:36;;;;;;;6.70;1.92;;;22.90;78.00;;;;;;5002651;28;20080;-89
2022/06/20 04:15:13;;;;;;;6.22;1.80;;;22.90;77.60;;;;;;4990545;28;20027;-89
2022/06/20 04:20:45;;;;;;;5.75;1.65;;;22.80;77.80;;;;;;5036307;28;20041;-89
2022/06/20 04:23:24;;;;;;;6.18;1.60;;;22.80;78.00;;;;;;5026562;28;20463;-87
2022/06/20 04:25:55;;;;;;;8.75;2.13;;;22.80;78.10;;;;;;5046317;28;20025;-87
2022/06/20 04:28:36;;;;;;;5.60;1.92;;;22.80;77.80;;;;;;5043424;28;20025;-87
2022/06/20 04:31:21;;;;;;;7.13;1.88;;;22.80;78.10;;;;;;5040337;28;20048;-86
2022/06/20 04:34:01;;;;;;;7.25;1.63;;;22.90;78.10;;;;;;5044237;28;20033;-88
2022/06/20 04:36:33;;;;;;;7.30;1.60;;;22.90;78.10;;;;;;5051976;28;20055;-88
2022/06/20 04:39:09;;;;;;;7.93;1.98;;;23.00;78.60;;;;;;5056053;28;20087;-87
2022/06/20 04:41:48;;;;;;;10.95;2.10;;;23.00;78.20;;;;;;5054992;28;20115;-88
2022/06/20 04:44:21;;;;;;;7.35;1.85;;;23.00;78.40;;;;;;5037328;28;20029;-90
2022/06/20 04:47:05;;;;;;;5.95;2.20;;;23.00;78.90;;;;;;5036885;28;20033;-89
2022/06/20 04:49:33;;;;;;;8.95;2.10;;;22.80;78.70;;;;;;5037380;28;20103;-89
2022/06/20 04:52:00;;;;;;;7.25;2.00;;;22.80;78.50;;;;;;5036819;28;20025;-88
2022/06/20 04:54:25;;;;;;;6.50;1.75;;;22.90;78.90;;;;;;5025531;28;20022;-88
2022/06/20 04:56:54;;;;;;;8.27;1.90;;;23.00;78.70;;;;;;5033528;28;20124;-85
2022/06/20 04:59:32;;;;;;;4.80;1.77;;;23.00;78.50;;;;;;5028593;28;20113;-88
2022/06/20 05:02:02;;;;;;;5.78;2.10;;;23.00;78.30;;;;;;5032782;28;20037;-85
2022/06/20 05:04:34;;;;;;;4.28;1.85;;;22.90;78.60;;;;;;5033404;28;20037;-85
2022/06/20 05:07:05;;;;;;;10.68;2.10;;;22.90;78.90;;;;;;5033281;28;20032;-88
2022/06/20 05:09:36;;;;;;;5.20;1.63;;;23.00;78.90;;;;;;5033492;28;20029;-90
2022/06/20 05:12:20;;;;;;;8.15;1.77;;;23.00;78.80;;;;;;5032691;28;20259;-88
2022/06/20 05:15:13;;;;;;;6.93;1.73;;;23.00;78.50;;;;;;5032213;28;20030;-89
2022/06/20 05:17:41;;;;;;;8.43;1.95;;;23.00;78.90;;;;;;5033315;28;20041;-90
2022/06/20 05:20:29;;;;;;;7.57;1.80;;;23.00;78.50;;;;;;5033362;28;20040;-91
2022/06/20 05:23:18;;;;;;;7.20;2.30;;;22.90;79.20;;;;;;5031882;28;20041;-91
2022/06/20 05:25:44;;;;;;;4.95;1.52;;;22.90;79.00;;;;;;5033688;28;20029;-86
2022/06/20 05:28:17;;;;;;;8.68;1.77;;;22.90;79.20;;;;;;5033475;28;20032;-92
2022/06/20 05:30:45;;;;;;;5.20;2.22;;;22.90;78.80;;;;;;5034131;28;20045;-88
2022/06/20 05:33:16;;;;;;;8.80;2.33;;;22.80;78.90;;;;;;5033752;28;20088;-90
2022/06/20 05:35:46;;;;;;;;;;;22.90;79.20;;;;;;5033802;28;20116;-92
2022/06/20 05:38:18;;;;;;;10.15;2.10;;;23.00;79.10;;;;;;5033044;28;19913;-92
2022/06/20 05:40:51;;;;;;;5.97;2.20;;;23.00;78.60;;;;;;5033884;28;20060;-87
2022/06/20 05:43:20;;;;;;;5.47;1.70;;;23.00;78.60;;;;;;5033076;28;20477;-95
2022/06/20 05:45:51;;;;;;;5.80;1.90;;;23.00;78.90;;;;;;5032352;28;20033;-90
2022/06/20 05:48:17;;;;;;;;;;;23.10;78.60;;;;;;5033508;28;20041;-90
2022/06/20 05:50:42;;;;;;;5.68;2.13;;;23.10;78.70;;;;;;5032582;28;19909;-91
2022/06/20 05:53:13;;;;;;;8.48;1.80;;;23.10;78.70;;;;;;5030839;28;20112;-90
2022/06/20 05:55:48;;;;;;;8.80;2.10;;;23.10;79.40;;;;;;5016326;28;20025;-91
2022/06/20 05:58:26;;;;;;;6.03;2.03;;;23.10;79.00;;;;;;5017061;28;20123;-91
2022/06/20 06:00:54;;;;;;;9.35;2.40;;;23.10;78.80;;;;;;5015869;28;20025;-91
2022/06/20 06:03:56;;;;;;;8.55;2.53;;;23.00;78.60;;;;;;5016030;28;20386;-93
2022/06/20 06:06:31;;;;;;;4.97;1.80;;;23.00;78.80;;;;;;5016746;28;20026;-89
2022/06/20 06:09:19;;;;;;;6.70;2.00;;;23.00;78.80;;;;;;5033143;28;20032;-87
2022/06/20 06:12:03;;;;;;;8.00;2.35;;;22.90;78.80;;;;;;5032770;28;20078;-86
2022/06/20 06:14:28;;;;;;;7.50;2.05;;;22.90;79.60;;;;;;5033067;28;20473;-87
2022/06/20 06:17:14;;;;;;;9.95;2.03;;;22.90;79.60;;;;;;4998917;28;20057;-85
2022/06/20 06:19:46;;;;;;;8.30;1.63;;;22.90;80.30;;;;;;5012368;28;20410;-86
2022/06/20 06:22:14;;;;;;;;;;;22.90;80.00;;;;;;5013800;28;20022;-84
2022/06/20 06:24:44;;;;;;;8.40;2.17;;;23.00;79.60;;;;;;4995955;28;19905;-85
2022/06/20 06:27:18;;;;;;;10.95;2.30;;;22.90;79.90;;;;;;4996201;28;20026;-83
2022/06/20 06:30:07;;;;;;;11.25;2.05;;;22.90;80.40;;;;;;5012818;28;20030;-80
2022/06/20 06:32:48;;;;;;;5.60;2.13;;;22.90;81.50;;;;;;5013166;28;20529;-84
2022/06/20 06:35:34;;;;;;;4.27;1.73;;;22.90;81.60;;;;;;4995493;28;20115;-83
2022/06/20 06:38:24;;;;;;;7.90;2.75;;;22.90;81.70;;;;;;4995445;28;20271;-84
2022/06/20 06:40:52;;;;;;;6.50;1.90;;;22.90;81.80;;;;;;5012523;28;20030;-81
2022/06/20 06:43:24;;;;;;;6.65;1.83;;;22.80;81.70;;;;;;4995337;28;20073;-83
2022/06/20 06:45:53;;;;;;;11.15;2.33;;;22.70;82.00;;;;;;4995270;28;20021;-86
2022/06/20 06:48:20;;;;;;;9.43;2.00;;;22.70;82.00;;;;;;5013318;28;20034;-84
2022/06/20 06:50:53;;;;;;;11.27;2.20;;;22.80;81.70;;;;;;4995186;28;20037;-84
2022/06/20 06:53:34;;;;;;;8.68;2.00;;;22.80;81.40;;;;;;4995060;28;20034;-87
2022/06/20 06:56:05;;;;;;;8.05;1.80;;;22.80;80.70;;;;;;5006607;28;20029;-88
2022/06/20 06:58:46;;;;;;;;;;;22.90;81.20;;;;;;5000160;28;20041;-85
2022/06/20 07:01:19;;;;;;;7.90;2.38;;;23.00;80.40;;;;;;5013049;28;19905;-86
2022/06/20 07:03:51;;;;;;;5.00;2.17;;;23.10;80.20;;;;;;4994914;28;20030;-87
2022/06/20 07:06:30;;;;;;;6.03;2.08;;;23.10;80.10;;;;;;4995715;28;20037;-87
2022/06/20 07:09:21;;;;;;;3.65;1.75;;;23.00;80.50;;;;;;5012748;28;20026;-87
2022/06/20 07:12:07;;;;;;;5.93;1.80;;;23.10;81.00;;;;;;4998240;28;20026;-87
2022/06/20 07:14:41;;;;;;;7.32;2.05;;;23.10;80.70;;;;;;4998271;28;20030;-88
2022/06/20 07:17:16;;;;;;;8.25;2.20;;;23.20;80.20;;;;;;4998575;28;20081;-86
2022/06/20 07:19:45;;;;;;;8.40;2.00;;;23.30;80.10;;;;;;5017521;28;20048;-87
2022/06/20 07:22:14;;;;;;;6.50;2.10;;;23.30;79.10;;;;;;5016637;28;20033;-86
2022/06/20 07:24:41;;;;;;;5.40;1.83;;;23.40;78.70;;;;;;5012461;28;20022;-85
2022/06/20 07:27:20;;;;;;;6.05;2.30;;;23.60;78.10;;;;;;5032622;28;20025;-86
2022/06/20 07:30:14;;;;;;;5.40;2.03;;;23.70;77.60;;;;;;5016678;28;20096;-82
2022/06/20 07:32:54;;;;;;;10.63;2.55;;;23.80;77.60;;;;;;5015097;28;20032;-85
2022/06/20 07:35:28;;;;;;;4.72;2.15;;;23.90;78.40;;;;;;4998508;28;20026;-86
2022/06/20 07:38:03;;;;;;;6.93;2.10;;;24.00;78.30;;;;;;5014620;28;20513;-85
2022/06/20 07:40:36;;;;;;;6.30;1.90;;;24.10;76.60;;;;;;4999193;28;20036;-86
2022/06/20 07:43:12;;;;;;;5.75;2.08;;;24.10;76.30;;;;;;4998785;28;20562;-89
2022/06/20 07:45:42;;;;;;;7.55;2.20;;;24.10;76.20;;;;;;4998746;28;20030;-85
2022/06/20 07:48:15;;;;;;;4.45;1.98;;;24.20;76.80;;;;;;4998844;28;20034;-84
2022/06/20 07:51:00;;;;;;;5.75;2.28;;;24.20;77.20;;;;;;5016349;28;20026;-84
2022/06/20 07:53:35;;;;;;;10.00;2.13;;;24.20;76.90;;;;;;4998576;28;20037;-84
2022/06/20 07:56:12;;;;;;;9.23;2.30;;;24.30;76.40;;;;;;4999277;28;20029;-84
2022/06/20 07:58:43;;;;;;;6.35;2.30;;;24.30;76.60;;;;;;4998236;28;20129;-82
2022/06/20 08:01:22;;;;;;;4.63;2.05;;;24.30;76.30;;;;;;5024115;28;20414;-83
2022/06/20 08:04:01;;;;;;;6.57;2.03;;;24.40;76.00;;;;;;5017303;28;20026;-82
2022/06/20 08:06:33;;;;;;;6.93;2.10;;;24.60;75.60;;;;;;5034515;28;20070;-84
2022/06/20 08:09:15;;;;;;;6.70;1.77;;;24.70;75.30;;;;;;5017666;28;20060;-83
2022/06/20 08:11:51;;;;;;;6.47;2.05;;;24.80;75.00;;;;;;5009997;28;20461;-83
2022/06/20 08:14:26;;;;;;;6.22;2.13;;;24.90;74.70;;;;;;4998092;28;20521;-84
2022/06/20 08:16:56;;;;;;;9.35;2.92;;;24.90;74.80;;;;;;5017195;28;20124;-86
2022/06/20 08:19:22;;;;;;;9.68;2.42;;;24.90;74.60;;;;;;5018168;28;20487;-86
2022/06/20 08:21:59;;;;;;;9.98;2.50;;;24.90;74.40;;;;;;5017464;28;20029;-84
2022/06/20 08:24:35;;;;;;;9.38;2.42;;;24.90;74.60;;;;;;5017391;28;20032;-83
2022/06/20 08:27:06;;;;;;;7.18;2.30;;;24.90;74.80;;;;;;5017298;28;20026;-85
2022/06/20 08:29:55;;;;;;;8.75;2.45;;;25.00;74.60;;;;;;5018331;28;20378;-85
2022/06/20 08:32:20;;;;;;;6.93;2.55;;;25.10;74.70;;;;;;5017321;28;20033;-84
2022/06/20 08:35:00;;;;;;;8.40;2.58;;;25.10;74.50;;;;;;5015097;28;20017;-84
2022/06/20 08:37:34;;;;;;;12.65;2.75;;;25.20;74.60;;;;;;5037110;28;20025;-84
2022/06/20 08:40:36;;;;;;;8.68;2.33;;;25.10;74.50;;;;;;5037091;28;20037;-85
2022/06/20 08:43:24;;;;;;;9.85;2.55;;;25.20;75.40;;;;;;5037079;28;20043;-87
2022/06/20 08:46:07;;;;;;;6.47;2.38;;;25.20;75.70;;;;;;5054544;28;20029;-86
2022/06/20 08:49:03;;;;;;;9.82;2.78;;;25.10;75.80;;;;;;5044961;28;20045;-91
2022/06/20 08:52:06;;;;;;;9.35;3.15;;;25.00;76.40;;;;;;5009210;28;20034;-80
2022/06/20 08:54:49;;;;;;;;;;;24.90;77.30;;;;;;5017552;28;20030;-80
2022/06/20 08:57:26;;;;;;;7.00;2.70;;;24.80;78.00;;;;;;5014206;28;19906;-81
2022/06/20 09:00:05;;;;;;;7.50;3.13;;;24.80;78.70;;;;;;4996178;28;20034;-82
2022/06/20 09:02:58;;;;;;;7.30;3.45;;;24.90;79.10;;;;;;4996908;28;20549;-82
2022/06/20 09:06:09;;;;;;;9.50;3.90;;;25.00;79.20;;;;;;5014064;28;20030;-87
2022/06/20 09:08:52;;;;;;;6.20;3.70;;;25.20;79.10;;;;;;4997940;28;20545;-84
2022/06/20 09:11:39;;;;;;;15.55;4.50;;;25.40;78.70;;;;;;5010870;28;20034;-86
2022/06/20 09:14:23;;;;;;;11.07;4.07;;;25.40;78.80;;;;;;5016481;28;20087;-84
2022/06/20 09:17:01;;;;;;;11.05;4.25;;;25.40;79.30;;;;;;5033752;28;20049;-84
2022/06/20 09:19:48;;;;;;;11.32;4.10;;;25.40;78.90;;;;;;5017009;28;20061;-87
2022/06/20 09:22:41;;;;;;;9.73;3.95;;;25.50;79.70;;;;;;5016997;28;20036;-83
2022/06/20 09:25:28;;;;;;;12.65;4.20;;;25.50;79.10;;;;;;4996281;28;20111;-83
2022/06/20 09:28:15;;;;;;;17.90;4.07;;;25.60;79.70;;;;;;5014101;28;20065;-86
2022/06/20 09:30:52;;;;;;;11.20;3.92;;;25.80;79.50;;;;;;5014297;28;20096;-87
2022/06/20 09:33:39;;;;;;;12.80;4.35;;;25.80;79.50;;;;;;5011802;28;20060;-84
2022/06/20 09:36:30;;;;;;;14.38;4.20;;;25.80;79.60;;;;;;5027050;28;20022;-85
2022/06/20 09:39:14;;;;;;;10.48;4.05;;;25.70;79.50;;;;;;5000299;28;20101;-86
2022/06/20 09:42:00;;;;;;;10.30;4.03;;;25.70;79.40;;;;;;5023611;28;20032;-85
2022/06/20 09:44:37;;;;;;;11.10;4.00;;;25.70;79.60;;;;;;5032033;28;20022;-84
2022/06/20 09:47:21;;;;;;;10.65;4.00;;;25.70;79.60;;;;;;5023423;28;20037;-87
2022/06/20 09:50:08;;;;;;;13.68;4.40;;;25.80;79.30;;;;;;5032123;28;20021;-84
2022/06/20 09:52:58;;;;;;;9.10;3.58;;;26.00;79.20;;;;;;5032967;28;20060;-90
2022/06/20 09:55:48;;;;;;;11.85;4.03;;;26.00;78.40;;;;;;5026412;28;20462;-87
2022/06/20 09:58:38;;;;;;;10.73;3.42;;;26.10;77.50;;;;;;5009942;28;20059;-80
2022/06/20 10:01:21;;;;;;;7.35;3.13;;;26.30;77.40;;;;;;5011685;28;20364;-88
2022/06/20 10:04:11;;;;;;;10.75;3.38;;;26.50;77.50;;;;;;5012840;28;20454;-84
2022/06/20 10:06:39;;;;;;;5.90;3.27;;;26.50;77.30;;;;;;5013084;28;20022;-85
2022/06/20 10:09:18;;;;;;;9.63;3.15;;;26.50;77.20;;;;;;5015483;28;20106;-86
2022/06/20 10:12:17;;;;;;;5.05;3.22;;;26.50;76.50;;;;;;5031512;28;20032;-82
2022/06/20 10:15:14;;;;;;;12.00;3.30;;;26.50;76.70;;;;;;5015554;28;20029;-84
2022/06/20 10:18:08;;;;;;;9.10;3.15;;;26.70;76.60;;;;;;5030791;28;20045;-81
2022/06/20 10:20:58;;;;;;;9.73;3.45;;;26.80;76.70;;;;;;5035499;28;20034;-81
2022/06/20 10:23:48;;;;;;;10.10;3.67;;;26.90;76.40;;;;;;5011345;28;20071;-82
2022/06/20 10:26:41;;;;;;;5.80;3.42;;;27.00;75.70;;;;;;5026766;28;20029;-81
2022/06/20 10:29:35;;;;;;;6.60;3.40;;;27.10;75.40;;;;;;5011108;28;20036;-80
2022/06/20 10:32:24;;;;;;;7.60;3.42;;;27.20;75.40;;;;;;5009854;28;20048;-86
2022/06/20 10:35:12;;;;;;;8.40;3.10;;;27.10;75.20;;;;;;5032155;28;20021;-85
2022/06/20 10:37:51;;;;;;;13.90;3.83;;;27.10;75.50;;;;;;5015704;28;20018;-86
2022/06/20 10:40:27;;;;;;;8.02;2.90;;;27.10;75.50;;;;;;5033399;28;20029;-83
2022/06/20 10:43:01;;;;;;;7.47;2.63;;;27.10;75.00;;;;;;5033946;28;20056;-96
2022/06/20 10:45:38;;;;;;;7.35;2.70;;;27.00;73.90;;;;;;5024196;28;20194;-94
2022/06/20 10:48:13;;;;;;;10.52;3.10;;;26.90;73.70;;;;;;5034630;28;20032;-81
2022/06/20 10:50:47;;;;;;;63.97;50.20;;;26.90;74.20;;;;;;5016378;28;20458;-83
2022/06/20 10:53:35;;;;;;;9.52;6.35;;;26.90;73.60;;;;;;5012718;28;20045;-78
2022/06/20 10:56:28;;;;;;;5.93;4.00;;;26.90;74.10;;;;;;5016111;28;20030;-77
2022/06/20 10:59:07;;;;;;;7.10;3.47;;;26.70;73.20;;;;;;5030096;28;20151;-88
2022/06/20 11:01:40;;;;;;;8.38;3.50;;;26.80;74.20;;;;;;5011458;28;20106;-89
2022/06/20 11:04:34;;;;;;;6.57;3.20;;;26.70;74.20;;;;;;5028759;28;20017;-84
2022/06/20 11:07:38;;;;;;;7.07;3.00;;;26.60;75.30;;;;;;5020387;28;20054;-83
2022/06/20 11:10:35;;;;;;;6.82;3.00;;;26.50;75.60;;;;;;4945442;28;20039;-83
2022/06/20 11:13:06;;;;;;;8.40;3.70;;;26.30;76.20;;;;;;4998101;28;20041;-80
2022/06/20 11:15:41;;;;;;;7.40;2.90;;;26.30;76.70;;;;;;4998639;28;20054;-79
2022/06/20 11:18:12;;;;;;;6.05;2.97;;;26.30;76.80;;;;;;4998702;28;20026;-79
2022/06/20 11:20:48;;;;;;;6.93;2.38;;;26.30;76.10;;;;;;4999293;28;20030;-79
2022/06/20 11:23:21;;;;;;;9.32;2.80;;;26.40;76.00;;;;;;5014890;28;20033;-79
2022/06/20 11:26:05;;;;;;;7.32;2.35;;;26.40;75.90;;;;;;5037739;28;20108;-79
2022/06/20 11:28:49;;;;;;;10.20;2.83;;;26.30;76.10;;;;;;5011650;28;20057;-78
2022/06/20 11:31:53;;;;;;;7.32;2.95;;;26.20;76.90;;;;;;5017275;28;20436;-79
2022/06/20 11:34:31;;;;;;;9.20;2.67;;;26.00;77.70;;;;;;4986676;28;20084;-88
2022/06/20 11:37:02;;;;;;;7.07;2.65;;;25.90;78.60;;;;;;5018071;28;20022;-87
2022/06/20 11:39:50;;;;;;;8.30;2.55;;;25.70;79.40;;;;;;5036601;28;20061;-87
2022/06/20 11:42:40;;;;;;;5.60;2.92;;;25.50;81.60;;;;;;5019069;28;20026;-87
2022/06/20 11:45:38;;;;;;;6.53;2.70;;;25.40;82.40;;;;;;5018602;28;20033;-87
2022/06/20 11:48:40;;;;;;;9.98;3.00;;;25.40;85.30;;;;;;5035689;28;20033;-85
2022/06/20 11:51:19;;;;;;;6.80;2.88;;;25.40;87.30;;;;;;5018574;28;20028;-87
2022/06/20 11:54:29;;;;;;;10.15;3.00;;;25.40;87.80;;;;;;5035742;28;20025;-85
2022/06/20 11:57:21;;;;;;;8.93;2.60;;;25.30;87.70;;;;;;4947968;28;20035;-86
2022/06/20 12:00:04;;;;;;;7.35;2.42;;;25.20;87.10;;;;;;4901498;29;20040;-85
2022/06/20 12:02:48;;;;;;;4.28;2.33;;;25.20;86.10;;;;;;4979859;28;20042;-88
2022/06/20 12:05:35;;;;;;;9.27;2.50;;;25.20;86.50;;;;;;5008705;28;20486;-85
2022/06/20 12:08:31;;;;;;;7.47;2.40;;;25.40;86.50;;;;;;5017613;28;20030;-91
2022/06/20 12:11:12;;;;;;;8.15;2.20;;;25.60;84.50;;;;;;5016204;28;20497;-90
2022/06/20 12:14:00;;;;;;;5.50;2.47;;;25.80;83.00;;;;;;5006026;28;20025;-90
2022/06/20 12:16:51;;;;;;;5.63;2.00;;;26.00;82.20;;;;;;5031932;28;20050;-92
2022/06/20 12:25:27;;;;;;;3.55;1.48;;;25.70;81.00;;;;;;5034014;28;20037;-93
2022/06/20 12:27:52;;;;;;;2.83;1.52;;;25.40;80.60;;;;;;4985041;28;20033;-83
2022/06/20 12:30:19;;;;;;;2.45;1.63;;;25.20;80.80;;;;;;5018105;28;20038;-84
2022/06/20 12:32:49;;;;;;;5.40;1.65;;;25.20;80.50;;;;;;5017520;28;20036;-84
2022/06/20 12:35:37;;;;;;;2.63;1.60;;;25.20;80.00;;;;;;5034177;28;20474;-84
2022/06/20 12:38:15;;;;;;;2.53;1.30;;;25.20;78.90;;;;;;5017540;28;20112;-82
2022/06/20 12:40:40;;;;;;;4.00;1.50;;;25.20;79.00;;;;;;5018937;28;20382;-83
2022/06/20 12:43:31;;;;;;;2.00;1.30;;;25.40;78.10;;;;;;5019913;28;20044;-83
2022/06/20 12:46:17;;;;;;;2.35;1.52;;;25.40;77.40;;;;;;5016817;28;20048;-82
2022/06/20 12:48:45;;;;;;;2.65;1.52;;;25.50;77.20;;;;;;5043813;28;20087;-96
2022/06/20 12:51:56;;;;;;;1.70;1.50;;;25.60;76.90;;;;;;5021244;28;20017;-86
2022/06/20 12:54:50;;;;;;;2.20;1.50;;;25.60;76.00;;;;;;4999663;28;20491;-81
2022/06/20 12:57:33;;;;;;;2.55;1.48;;;25.70;75.50;;;;;;5014799;28;20091;-81
2022/06/20 13:00:18;;;;;;;3.60;1.48;;;25.80;75.10;;;;;;5015716;28;20033;-82
2022/06/20 13:02:58;;;;;;;2.88;1.65;;;26.20;73.90;;;;;;5014293;28;20030;-81
2022/06/20 13:05:43;;;;;;;4.20;1.85;;;26.40;72.50;;;;;;5016833;28;20021;-81
2022/06/20 13:08:39;;;;;;;3.45;1.75;;;26.10;72.60;;;;;;5009904;28;20470;-83
2022/06/20 13:11:11;;;;;;;4.93;1.98;;;25.70;73.80;;;;;;5030800;28;20026;-81
2022/06/20 13:13:45;;;;;;;;;;;25.20;74.90;;;;;;5016601;28;20026;-81
2022/06/20 13:16:16;;;;;;;4.80;2.10;;;24.90;75.30;;;;;;5005836;28;19928;-79
2022/06/20 13:19:11;;;;;;;3.47;2.00;;;24.80;76.00;;;;;;5016312;28;20029;-81
2022/06/20 13:21:45;;;;;;;5.28;1.95;;;24.60;76.70;;;;;;5015274;28;20048;-78
2022/06/20 13:24:44;;;;;;;3.10;1.98;;;24.40;77.00;;;;;;5011228;28;20079;-78
2022/06/20 13:27:16;;;;;;;3.55;1.60;;;24.30;77.30;;;;;;5017472;28;20494;-90
2022/06/20 13:29:52;;;;;;;3.47;2.00;;;24.00;77.70;;;;;;5026953;28;20025;-89
2022/06/20 13:32:36;;;;;;;2.50;2.28;;;23.90;78.20;;;;;;5040402;28;20024;-89
2022/06/20 13:35:14;;;;;;;4.15;2.40;;;23.80;79.70;;;;;;5021212;28;20026;-85
2022/06/20 13:37:57;;;;;;;5.03;1.95;;;23.70;80.60;;;;;;5040229;28;20017;-87
2022/06/20 13:40:34;;;;;;;2.80;1.98;;;23.80;79.90;;;;;;5018436;28;20037;-79
2022/06/20 13:43:45;;;;;;;5.43;1.90;;;23.80;79.30;;;;;;5031295;28;20036;-81
2022/06/20 13:46:23;;;;;;;3.85;2.00;;;23.80;79.90;;;;;;5016529;28;20056;-82
2022/06/20 13:49:15;;;;;;;3.65;2.03;;;23.80;79.40;;;;;;5017245;28;20068;-80
2022/06/20 13:52:02;;;;;;;3.50;2.38;;;23.70;78.60;;;;;;5016796;28;20032;-81